Time;durP1;ratioP1;P1;durP2;ratioP2;P2;SDS_P1;SDS_P2;PMS_P1;PMS_P2;Temp;Humidity;BMP_temperature;BMP_pressure;BME280_temperature;BME280_humidity;BME280_pressure;Samples;Min_cycle;Max_cycle;Signal;HPM_P1;HPM_P2
2023/05/27 00:00:06;;;;;;;4.00;3.60;;;19.90;66.80;;;;;;4997554;28;20196;-68
2023/05/27 00:02:32;;;;;;;5.30;4.25;;;19.90;67.00;;;;;;5013460;28;20218;-68
2023/05/27 00:04:58;;;;;;;4.05;3.65;;;19.90;67.10;;;;;;4994225;28;20192;-68
2023/05/27 00:07:25;;;;;;;4.65;3.70;;;19.90;67.60;;;;;;4996861;28;20208;-66
2023/05/27 00:09:51;;;;;;;4.30;3.90;;;19.90;66.90;;;;;;4997085;28;20196;-68
2023/05/27 00:12:17;;;;;;;3.67;3.38;;;19.90;66.80;;;;;;4997044;28;20258;-67
2023/05/27 00:14:43;;;;;;;4.32;3.50;;;19.90;66.80;;;;;;5013181;28;20208;-67
2023/05/27 00:17:13;;;;;;;4.10;3.72;;;19.90;66.80;;;;;;5013139;28;20274;-67
2023/05/27 00:19:39;;;;;;;4.75;4.32;;;19.90;66.80;;;;;;4996813;28;20659;-68
2023/05/27 00:22:06;;;;;;;5.00;3.67;;;19.90;66.80;;;;;;4993633;28;20287;-66
2023/05/27 00:24:35;;;;;;;4.95;3.80;;;19.90;66.80;;;;;;4994734;28;20199;-67
2023/05/27 00:27:02;;;;;;;5.47;3.65;;;19.90;66.80;;;;;;5013305;28;20295;-67
2023/05/27 00:29:28;;;;;;;5.03;3.65;;;19.90;66.90;;;;;;4996307;28;20195;-68
2023/05/27 00:31:54;;;;;;;5.60;3.92;;;19.90;66.80;;;;;;5012949;28;20196;-67
2023/05/27 00:34:20;;;;;;;3.83;3.42;;;19.90;66.80;;;;;;5012864;28;20219;-66
2023/05/27 00:36:45;;;;;;;3.78;3.47;;;19.90;66.80;;;;;;4995791;28;20683;-67
2023/05/27 00:39:11;;;;;;;4.03;3.65;;;19.90;66.80;;;;;;5012743;28;20204;-67
2023/05/27 00:41:42;;;;;;;4.32;3.83;;;19.90;66.80;;;;;;5012610;28;20663;-67
2023/05/27 00:44:08;;;;;;;4.22;3.47;;;19.90;66.80;;;;;;4993613;28;20188;-67
2023/05/27 00:46:33;;;;;;;3.60;3.30;;;19.90;66.80;;;;;;5010806;28;20628;-67
2023/05/27 00:48:59;;;;;;;4.95;3.72;;;19.90;66.80;;;;;;4996241;28;20204;-68
2023/05/27 00:51:25;;;;;;;3.40;3.10;;;19.90;66.80;;;;;;5012431;28;20187;-67
2023/05/27 00:53:51;;;;;;;3.97;3.50;;;19.90;66.80;;;;;;5012687;28;20215;-68
2023/05/27 00:56:17;;;;;;;4.53;3.40;;;19.90;66.80;;;;;;4996495;28;20207;-67
2023/05/27 00:58:45;;;;;;;3.90;3.47;;;19.90;66.80;;;;;;4996108;28;20184;-67
2023/05/27 01:01:11;;;;;;;4.25;3.50;;;19.90;66.80;;;;;;4996022;28;20196;-67
2023/05/27 01:03:38;;;;;;;3.80;3.50;;;19.90;66.80;;;;;;4994475;28;20241;-67
2023/05/27 01:06:40;;;;;;;3.92;3.50;;;19.90;66.80;;;;;;5012198;28;20192;-67
2023/05/27 01:09:23;;;;;;;4.70;3.75;;;19.90;66.80;;;;;;4995528;28;20191;-67
2023/05/27 01:12:03;;;;;;;4.10;3.40;;;19.90;66.80;;;;;;4995721;28;20659;-67
2023/05/27 01:14:33;;;;;;;3.58;3.28;;;19.80;66.70;;;;;;5012087;28;20208;-67
2023/05/27 01:17:02;;;;;;;3.97;3.58;;;19.80;66.70;;;;;;5012113;28;20691;-66
2023/05/27 01:19:36;;;;;;;3.90;3.50;;;19.80;66.70;;;;;;4995513;28;20655;-66
2023/05/27 01:22:04;;;;;;;4.03;3.63;;;19.90;66.80;;;;;;5012298;28;20543;-67
2023/05/27 01:24:31;;;;;;;4.93;3.63;;;19.80;66.70;;;;;;4995518;28;20278;-67
2023/05/27 01:26:57;;;;;;;4.47;3.60;;;19.90;66.80;;;;;;5012195;28;20243;-67
2023/05/27 01:29:23;;;;;;;3.55;3.15;;;19.80;66.70;;;;;;4995686;28;20564;-66
2023/05/27 01:32:14;;;;;;;3.42;3.00;;;19.90;66.80;;;;;;4995449;28;20227;-67
2023/05/27 01:34:54;;;;;;;3.58;3.20;;;19.80;66.70;;;;;;4995145;28;20251;-67
2023/05/27 01:37:25;;;;;;;4.90;3.72;;;19.80;66.70;;;;;;4995160;28;20218;-66
2023/05/27 01:39:52;;;;;;;3.63;3.33;;;19.90;66.80;;;;;;4992292;28;20200;-67
2023/05/27 01:42:20;;;;;;;3.75;3.28;;;19.80;66.70;;;;;;4982700;28;20282;-67
2023/05/27 01:44:46;;;;;;;3.83;3.47;;;19.80;66.70;;;;;;4995078;28;20187;-67
2023/05/27 01:47:12;;;;;;;3.47;3.15;;;19.80;66.70;;;;;;5011394;28;20262;-67
2023/05/27 01:49:38;;;;;;;3.85;3.40;;;19.80;66.70;;;;;;4993234;28;20192;-67
2023/05/27 01:52:04;;;;;;;3.95;3.53;;;19.80;66.60;;;;;;5011353;28;20195;-68
2023/05/27 01:54:30;;;;;;;4.30;3.25;;;19.80;66.60;;;;;;4994900;28;20212;-66
2023/05/27 01:56:57;;;;;;;3.70;3.40;;;19.80;67.50;;;;;;5011624;28;20265;-67
2023/05/27 01:59:22;;;;;;;3.80;3.50;;;19.80;66.40;;;;;;4994879;28;20188;-66
2023/05/27 02:01:48;;;;;;;3.58;3.20;;;19.80;66.60;;;;;;4994870;28;20196;-67
2023/05/27 02:04:14;;;;;;;3.67;3.10;;;19.80;66.50;;;;;;5011792;28;20199;-68
2023/05/27 02:06:40;;;;;;;5.65;3.60;;;19.80;66.60;;;;;;4994759;28;20227;-67
2023/05/27 02:09:06;;;;;;;4.32;3.60;;;19.80;66.40;;;;;;4994440;28;20203;-67
2023/05/27 02:11:32;;;;;;;4.18;3.28;;;19.80;66.40;;;;;;4992301;28;20196;-67
2023/05/27 02:13:59;;;;;;;3.95;3.35;;;19.80;66.40;;;;;;5011386;28;20261;-67
2023/05/27 02:16:25;;;;;;;3.70;3.30;;;19.80;66.30;;;;;;4994863;28;20219;-68
2023/05/27 02:18:51;;;;;;;3.63;3.30;;;19.80;66.40;;;;;;4994684;28;20180;-67
2023/05/27 02:21:17;;;;;;;4.05;3.10;;;19.80;66.40;;;;;;4991735;28;20185;-68
2023/05/27 02:23:43;;;;;;;3.70;3.20;;;19.80;66.40;;;;;;5011084;28;20580;-68
2023/05/27 02:26:09;;;;;;;3.85;3.30;;;19.80;66.40;;;;;;5011013;28;20695;-68
2023/05/27 02:28:35;;;;;;;3.90;3.53;;;19.80;66.30;;;;;;4991948;28;20664;-67
2023/05/27 02:31:01;;;;;;;3.95;3.55;;;19.80;66.40;;;;;;4991584;28;20199;-67
2023/05/27 02:33:26;;;;;;;4.75;3.50;;;19.80;66.30;;;;;;4994659;28;20188;-67
2023/05/27 02:35:52;;;;;;;3.22;2.90;;;19.80;66.20;;;;;;4991653;28;20641;-67
2023/05/27 02:38:18;;;;;;;3.40;3.00;;;19.80;66.50;;;;;;5022257;28;20200;-67
2023/05/27 02:40:44;;;;;;;4.72;3.17;;;19.80;66.30;;;;;;5000467;28;20179;-67
2023/05/27 02:43:10;;;;;;;3.85;3.00;;;19.80;66.30;;;;;;5000651;28;20242;-67
2023/05/27 02:45:36;;;;;;;3.75;3.08;;;19.80;66.20;;;;;;4994588;28;20231;-67
2023/05/27 02:48:03;;;;;;;3.20;2.90;;;19.80;66.30;;;;;;5010650;28;20208;-68
2023/05/27 02:50:29;;;;;;;3.80;3.30;;;19.80;66.20;;;;;;4994732;28;20187;-68
2023/05/27 02:52:55;;;;;;;4.80;3.22;;;19.80;67.00;;;;;;4991484;28;20184;-67
2023/05/27 02:55:21;;;;;;;3.58;3.08;;;19.80;66.30;;;;;;5022506;28;20214;-67
2023/05/27 02:57:47;;;;;;;3.40;3.10;;;19.80;66.20;;;;;;5018788;28;20200;-66
2023/05/27 03:00:14;;;;;;;3.58;2.90;;;19.80;66.20;;;;;;4997310;28;20184;-66
2023/05/27 03:02:40;;;;;;;5.35;3.75;;;19.80;66.10;;;;;;4996052;28;20192;-66
2023/05/27 03:05:07;;;;;;;4.75;3.50;;;19.80;66.10;;;;;;5031023;28;20195;-68
2023/05/27 03:07:32;;;;;;;4.97;3.20;;;19.80;66.10;;;;;;4994574;28;20205;-68
2023/05/27 03:10:00;;;;;;;3.63;2.95;;;19.80;66.00;;;;;;4994896;28;20771;-67
2023/05/27 03:12:26;;;;;;;4.38;3.28;;;19.70;66.00;;;;;;4995073;28;20279;-66
2023/05/27 03:14:52;;;;;;;3.47;2.80;;;19.80;66.00;;;;;;5022120;28;20223;-68
2023/05/27 03:17:20;;;;;;;3.55;3.13;;;19.80;66.00;;;;;;4994819;28;20205;-67
2023/05/27 03:19:46;;;;;;;3.90;3.30;;;19.80;66.00;;;;;;4996353;28;20185;-67
2023/05/27 03:22:12;;;;;;;3.60;3.00;;;19.80;66.00;;;;;;5008968;28;20200;-67
2023/05/27 03:24:40;;;;;;;3.60;3.10;;;19.80;66.00;;;;;;4995489;28;20196;-68
2023/05/27 03:27:06;;;;;;;4.60;3.17;;;19.80;66.10;;;;;;5014162;28;20239;-67
2023/05/27 03:29:35;;;;;;;3.42;3.13;;;19.80;66.00;;;;;;4989823;28;20193;-67
2023/05/27 03:32:01;;;;;;;3.60;2.78;;;19.70;66.00;;;;;;4994757;28;20185;-67
2023/05/27 03:34:27;;;;;;;3.05;2.75;;;19.70;66.10;;;;;;5001644;28;20302;-67
2023/05/27 03:36:53;;;;;;;5.60;3.20;;;19.80;66.10;;;;;;5003279;28;20323;-67
2023/05/27 03:39:24;;;;;;;3.47;3.03;;;19.70;66.00;;;;;;5002241;28;20185;-67
2023/05/27 03:41:55;;;;;;;4.03;2.90;;;19.80;66.00;;;;;;5013981;28;20180;-66
2023/05/27 03:44:22;;;;;;;3.20;2.90;;;19.70;65.90;;;;;;4994173;28;20195;-67
2023/05/27 03:46:47;;;;;;;4.03;3.58;;;19.70;66.00;;;;;;4979490;28;20205;-68
2023/05/27 03:49:13;;;;;;;3.58;2.95;;;19.70;66.00;;;;;;4984038;28;20193;-68
2023/05/27 03:51:40;;;;;;;3.25;2.90;;;19.70;65.90;;;;;;5011168;28;20219;-67
2023/05/27 03:54:06;;;;;;;3.80;3.25;;;19.70;65.90;;;;;;5013837;28;20239;-68
2023/05/27 03:56:31;;;;;;;3.20;2.90;;;19.70;66.00;;;;;;5022516;28;20204;-67
2023/05/27 03:58:57;;;;;;;3.17;2.67;;;19.70;65.90;;;;;;5017975;28;20185;-67
2023/05/27 04:01:23;;;;;;;3.58;2.92;;;19.70;65.90;;;;;;4993724;28;20197;-68
2023/05/27 04:03:49;;;;;;;3.88;2.90;;;19.70;65.90;;;;;;5025130;28;20199;-67
2023/05/27 04:06:15;;;;;;;3.60;3.00;;;19.70;65.80;;;;;;5029734;28;20247;-67
2023/05/27 04:08:41;;;;;;;3.53;3.00;;;19.70;65.80;;;;;;4996426;28;20193;-67
2023/05/27 04:11:14;;;;;;;5.22;2.83;;;19.70;65.80;;;;;;5004781;28;20223;-67
2023/05/27 04:13:41;;;;;;;2.97;2.75;;;19.70;65.80;;;;;;5004959;28;20217;-66
2023/05/27 04:16:07;;;;;;;4.93;2.95;;;19.70;65.90;;;;;;5026114;28;20185;-67
2023/05/27 04:18:35;;;;;;;4.15;2.78;;;19.70;65.80;;;;;;5025656;28;20177;-67
2023/05/27 04:21:02;;;;;;;3.40;3.10;;;19.70;65.90;;;;;;5013367;28;20263;-67
2023/05/27 04:23:28;;;;;;;3.92;2.70;;;19.70;65.80;;;;;;5013063;28;20278;-67
2023/05/27 04:25:54;;;;;;;4.10;3.13;;;19.70;65.90;;;;;;5012830;28;20220;-68
2023/05/27 04:28:23;;;;;;;4.35;2.78;;;19.70;65.80;;;;;;4996830;28;20191;-66
2023/05/27 04:30:53;;;;;;;3.20;2.90;;;19.70;65.80;;;;;;4996806;28;20188;-67
2023/05/27 04:33:32;;;;;;;5.05;3.30;;;19.70;65.90;;;;;;5029367;28;20194;-67
2023/05/27 04:35:58;;;;;;;3.80;3.10;;;19.70;65.90;;;;;;5012861;28;20208;-66
2023/05/27 04:38:31;;;;;;;4.72;3.80;;;19.70;65.80;;;;;;4993267;28;20181;-68
2023/05/27 04:41:01;;;;;;;7.25;4.85;;;19.70;65.80;;;;;;4996546;28;20234;-68
2023/05/27 04:43:47;;;;;;;6.88;5.22;;;19.70;65.80;;;;;;5011650;28;20262;-66
2023/05/27 04:46:17;;;;;;;7.68;5.13;;;19.70;65.80;;;;;;5022300;28;20208;-66
2023/05/27 04:48:44;;;;;;;5.40;4.53;;;19.70;65.80;;;;;;4995317;28;20235;-67
2023/05/27 04:51:10;;;;;;;4.72;3.67;;;19.70;65.80;;;;;;5005472;28;20390;-67
2023/05/27 04:53:36;;;;;;;4.97;4.28;;;19.70;65.80;;;;;;5028871;28;20223;-67
2023/05/27 04:56:02;;;;;;;4.70;4.03;;;19.70;65.80;;;;;;5020582;28;20212;-68
2023/05/27 04:58:29;;;;;;;5.25;4.20;;;19.70;65.80;;;;;;5012219;28;20274;-67
2023/05/27 05:00:57;;;;;;;4.45;3.95;;;19.70;65.70;;;;;;4996092;28;20272;-66
2023/05/27 05:03:36;;;;;;;4.88;4.13;;;19.70;65.80;;;;;;4992813;28;20188;-67
2023/05/27 05:06:03;;;;;;;4.72;4.03;;;19.70;65.80;;;;;;4988136;28;20192;-66
2023/05/27 05:08:31;;;;;;;5.40;4.15;;;19.70;65.80;;;;;;5004294;28;20223;-66
2023/05/27 05:10:57;;;;;;;5.32;4.00;;;19.70;65.80;;;;;;4993286;28;20261;-65
2023/05/27 05:13:28;;;;;;;4.00;3.60;;;19.70;65.80;;;;;;5008810;28;20185;-67
2023/05/27 05:15:55;;;;;;;4.88;3.92;;;19.70;65.80;;;;;;5008547;28;20207;-66
2023/05/27 05:18:21;;;;;;;4.05;3.42;;;19.70;65.80;;;;;;5006061;28;20187;-67
2023/05/27 05:20:47;;;;;;;5.05;3.63;;;19.70;65.70;;;;;;5020140;28;20185;-66
2023/05/27 05:23:17;;;;;;;4.35;3.80;;;19.70;65.60;;;;;;4995313;28;20187;-67
2023/05/27 05:25:44;;;;;;;6.70;3.75;;;19.60;65.60;;;;;;4995006;28;20184;-68
2023/05/27 05:28:10;;;;;;;4.05;3.65;;;19.70;65.70;;;;;;5004267;28;20220;-66
2023/05/27 05:30:38;;;;;;;5.20;3.50;;;19.60;65.60;;;;;;5004277;28;20209;-67
2023/05/27 05:33:05;;;;;;;4.85;3.78;;;19.70;65.70;;;;;;5011839;28;20199;-67
2023/05/27 05:35:32;;;;;;;4.97;4.00;;;19.70;65.70;;;;;;5003467;28;20219;-67
2023/05/27 05:38:13;;;;;;;4.82;4.13;;;19.60;65.60;;;;;;5007068;28;20212;-67
2023/05/27 05:40:39;;;;;;;5.88;3.90;;;19.70;65.80;;;;;;5008323;28;20192;-67
2023/05/27 05:43:13;;;;;;;3.90;3.50;;;19.60;65.60;;;;;;5004811;28;20218;-67
2023/05/27 05:45:39;;;;;;;4.88;3.90;;;19.60;65.60;;;;;;5003404;28;20194;-67
2023/05/27 05:48:05;;;;;;;5.28;4.75;;;19.60;65.60;;;;;;4994779;28;20212;-68
2023/05/27 05:50:32;;;;;;;4.88;4.05;;;19.60;65.60;;;;;;4991824;28;20239;-67
2023/05/27 05:52:58;;;;;;;5.05;3.78;;;19.60;65.60;;;;;;5010612;28;20195;-67
2023/05/27 05:55:24;;;;;;;4.13;3.72;;;19.60;65.60;;;;;;5027809;28;20306;-67
2023/05/27 05:57:50;;;;;;;4.20;3.58;;;19.60;65.60;;;;;;5009954;28;20207;-67
2023/05/27 06:00:16;;;;;;;4.10;3.70;;;19.60;65.60;;;;;;5004916;28;20180;-68
2023/05/27 06:02:45;;;;;;;4.82;4.28;;;19.60;65.50;;;;;;5018742;28;20243;-68
2023/05/27 06:05:22;;;;;;;5.03;3.70;;;19.70;65.60;;;;;;4999843;28;20184;-67
2023/05/27 06:07:48;;;;;;;4.95;4.10;;;19.70;65.50;;;;;;5024661;28;20208;-67
2023/05/27 06:10:14;;;;;;;4.88;3.80;;;19.70;65.40;;;;;;5019566;28;20184;-68
2023/05/27 06:12:42;;;;;;;5.03;4.15;;;19.70;65.40;;;;;;5004177;28;20201;-67
2023/05/27 06:15:08;;;;;;;4.88;3.53;;;19.70;65.40;;;;;;5024532;28;20207;-65
2023/05/27 06:17:39;;;;;;;5.07;3.65;;;19.70;65.40;;;;;;5026054;28;20210;-66
2023/05/27 06:20:06;;;;;;;4.80;4.30;;;19.70;65.40;;;;;;5020553;28;20188;-67
2023/05/27 06:22:33;;;;;;;4.82;4.07;;;19.70;65.40;;;;;;4992815;28;20177;-68
2023/05/27 06:25:18;;;;;;;5.85;4.35;;;19.70;65.40;;;;;;4998766;28;20291;-66
2023/05/27 06:28:05;;;;;;;4.25;3.60;;;19.70;65.30;;;;;;4995503;28;20239;-68
2023/05/27 06:30:37;;;;;;;6.43;4.88;;;19.70;65.30;;;;;;5015864;28;20283;-68
2023/05/27 06:33:05;;;;;;;6.05;5.00;;;19.70;65.20;;;;;;5010436;28;20271;-70
2023/05/27 06:35:32;;;;;;;5.93;5.32;;;19.70;65.40;;;;;;5017673;28;20234;-68
2023/05/27 06:37:59;;;;;;;5.88;4.70;;;19.70;65.20;;;;;;5014736;28;20235;-68
2023/05/27 06:40:24;;;;;;;6.97;4.38;;;19.70;65.20;;;;;;5014892;28;20604;-69
2023/05/27 06:42:52;;;;;;;4.82;4.32;;;19.70;65.20;;;;;;5015101;28;20188;-67
2023/05/27 06:45:36;;;;;;;5.20;4.47;;;19.70;65.30;;;;;;4993910;28;20184;-68
2023/05/27 06:48:26;;;;;;;4.82;4.15;;;19.80;65.30;;;;;;5017780;28;20180;-69
2023/05/27 06:50:52;;;;;;;5.70;4.97;;;19.70;65.20;;;;;;5022138;28;20535;-68
2023/05/27 06:53:17;;;;;;;4.60;4.13;;;19.80;65.30;;;;;;5015941;28;20194;-69
2023/05/27 06:56:04;;;;;;;6.72;4.75;;;19.80;65.30;;;;;;5019691;28;20205;-68
2023/05/27 06:58:55;;;;;;;4.47;4.07;;;19.80;65.20;;;;;;4984238;28;20193;-68
2023/05/27 07:01:21;;;;;;;4.95;4.45;;;19.80;65.20;;;;;;4994893;28;20702;-68
2023/05/27 07:03:52;;;;;;;6.60;4.10;;;19.80;65.20;;;;;;5012716;28;20184;-68
2023/05/27 07:06:30;;;;;;;5.00;4.38;;;19.80;65.20;;;;;;5024911;28;20628;-68
2023/05/27 07:08:56;;;;;;;4.78;4.38;;;19.80;65.20;;;;;;5014161;28;20183;-69
2023/05/27 07:11:26;;;;;;;4.65;4.18;;;19.80;65.20;;;;;;4994977;28;20224;-68
2023/05/27 07:13:57;;;;;;;4.60;3.85;;;19.80;65.10;;;;;;5014083;28;20630;-68
2023/05/27 07:16:28;;;;;;;5.35;4.32;;;19.80;65.10;;;;;;5024918;28;20196;-68
2023/05/27 07:18:55;;;;;;;4.63;4.07;;;19.80;65.10;;;;;;5026834;28;20192;-68
2023/05/27 07:21:21;;;;;;;6.20;4.22;;;19.80;65.00;;;;;;4999063;28;20187;-68
2023/05/27 07:23:47;;;;;;;7.22;4.38;;;19.80;64.90;;;;;;5022871;28;20197;-68
2023/05/27 07:26:28;;;;;;;4.90;4.40;;;19.80;65.00;;;;;;5028699;28;20208;-68
2023/05/27 07:28:54;;;;;;;4.63;4.18;;;19.80;65.00;;;;;;5013839;28;20184;-67
2023/05/27 07:31:29;;;;;;;6.25;4.50;;;19.80;65.00;;;;;;4994636;28;20188;-68
2023/05/27 07:34:00;;;;;;;4.63;4.05;;;19.80;65.20;;;;;;4998347;28;20270;-68
2023/05/27 07:36:26;;;;;;;4.60;4.15;;;19.90;65.10;;;;;;4997564;28;20200;-66
2023/05/27 07:38:51;;;;;;;6.68;3.65;;;19.90;65.20;;;;;;4997452;28;20183;-68
2023/05/27 07:41:18;;;;;;;4.82;3.90;;;19.90;65.30;;;;;;4997952;28;20196;-68
2023/05/27 07:43:44;;;;;;;4.20;3.80;;;19.90;65.20;;;;;;4997795;28;20283;-68
2023/05/27 07:46:10;;;;;;;4.85;4.30;;;19.90;65.20;;;;;;4995872;28;20276;-68
2023/05/27 07:48:38;;;;;;;4.72;3.90;;;19.90;65.20;;;;;;5013620;28;20184;-67
2023/05/27 07:51:04;;;;;;;5.93;4.15;;;19.90;65.20;;;;;;4996450;28;20284;-68
2023/05/27 07:53:31;;;;;;;5.97;4.22;;;19.90;65.20;;;;;;5013721;28;20266;-67
2023/05/27 07:55:57;;;;;;;5.28;4.40;;;19.90;65.60;;;;;;5005656;28;20557;-66
2023/05/27 07:58:23;;;;;;;5.80;3.65;;;19.90;65.50;;;;;;4997370;28;20188;-67
2023/05/27 08:00:59;;;;;;;5.25;4.15;;;19.90;65.30;;;;;;4995106;28;20181;-68
2023/05/27 08:03:25;;;;;;;4.10;3.67;;;19.90;65.30;;;;;;5025228;28;20195;-68
2023/05/27 08:05:57;;;;;;;5.13;3.97;;;19.90;65.40;;;;;;5012224;28;20184;-67
2023/05/27 08:08:49;;;;;;;4.45;3.63;;;19.90;65.40;;;;;;4995683;28;20275;-68
2023/05/27 08:11:33;;;;;;;5.72;4.03;;;19.90;65.20;;;;;;5013737;28;20195;-68
2023/05/27 08:14:20;;;;;;;5.13;4.07;;;19.90;65.40;;;;;;4990561;28;20246;-68
2023/05/27 08:17:18;;;;;;;4.53;4.07;;;19.90;65.30;;;;;;5003711;28;20210;-68
2023/05/27 08:19:57;;;;;;;5.00;4.25;;;20.00;65.40;;;;;;4994531;28;20189;-68
2023/05/27 08:22:38;;;;;;;5.28;3.78;;;20.00;65.40;;;;;;5013367;28;20271;-68
2023/05/27 08:25:27;;;;;;;4.07;3.55;;;20.00;65.30;;;;;;5002481;28;20257;-68
2023/05/27 08:28:02;;;;;;;4.63;3.85;;;20.00;65.00;;;;;;5013187;28;20254;-66
2023/05/27 08:30:41;;;;;;;5.20;4.68;;;20.00;65.10;;;;;;5013348;28;20180;-67
2023/05/27 08:33:10;;;;;;;6.18;4.32;;;20.00;65.10;;;;;;4997147;28;20184;-66
2023/05/27 08:35:36;;;;;;;4.68;4.00;;;20.00;65.20;;;;;;4996638;28;20214;-67
2023/05/27 08:38:02;;;;;;;5.18;4.22;;;20.00;65.10;;;;;;4994622;28;20267;-68
2023/05/27 08:40:33;;;;;;;5.68;4.65;;;20.00;65.10;;;;;;5013051;28;20190;-68
2023/05/27 08:42:59;;;;;;;5.78;4.40;;;20.00;65.10;;;;;;5011766;28;20191;-69
2023/05/27 08:45:26;;;;;;;5.05;4.15;;;20.00;64.90;;;;;;5006350;28;20210;-68
2023/05/27 08:47:53;;;;;;;6.13;4.20;;;20.10;65.10;;;;;;4993373;28;20212;-68
2023/05/27 08:50:24;;;;;;;5.30;4.00;;;20.10;65.10;;;;;;5012805;28;20181;-68
2023/05/27 08:52:54;;;;;;;5.05;4.03;;;20.10;65.00;;;;;;5012705;28;20187;-68
2023/05/27 08:55:22;;;;;;;4.88;4.20;;;20.10;65.00;;;;;;4996497;28;20236;-68
2023/05/27 08:57:55;;;;;;;4.38;3.90;;;20.10;65.20;;;;;;4996106;28;20208;-66
2023/05/27 09:00:22;;;;;;;5.38;4.00;;;20.10;65.10;;;;;;4985722;28;20441;-67
2023/05/27 09:02:49;;;;;;;6.30;4.43;;;20.10;65.00;;;;;;4992783;28;20191;-68
2023/05/27 09:05:17;;;;;;;5.57;4.32;;;20.10;65.00;;;;;;4996452;28;20184;-67
2023/05/27 09:07:44;;;;;;;5.40;3.85;;;20.10;65.20;;;;;;4995997;28;20265;-68
2023/05/27 09:10:10;;;;;;;5.10;4.38;;;20.10;65.20;;;;;;5012171;28;20283;-68
2023/05/27 09:12:36;;;;;;;6.32;4.50;;;20.10;65.30;;;;;;5012307;28;20279;-68
2023/05/27 09:15:06;;;;;;;6.13;4.45;;;20.10;65.20;;;;;;4995992;28;20641;-68
2023/05/27 09:17:32;;;;;;;5.25;4.38;;;20.10;65.10;;;;;;5020344;28;20208;-68
2023/05/27 09:19:57;;;;;;;4.82;3.80;;;20.10;65.20;;;;;;5020009;28;20195;-68
2023/05/27 09:22:28;;;;;;;5.40;4.28;;;20.10;65.30;;;;;;5012445;28;20180;-67
2023/05/27 09:24:54;;;;;;;5.13;4.07;;;20.10;65.30;;;;;;5012149;28;20192;-68
2023/05/27 09:27:29;;;;;;;6.63;4.25;;;20.10;65.40;;;;;;4996107;28;20265;-68
2023/05/27 09:29:56;;;;;;;6.10;4.65;;;20.10;65.30;;;;;;5011973;28;20206;-68
2023/05/27 09:32:31;;;;;;;5.20;4.20;;;20.10;65.30;;;;;;5012007;28;20199;-67
2023/05/27 09:35:04;;;;;;;4.57;4.13;;;20.10;65.40;;;;;;5012176;28;20215;-67
2023/05/27 09:37:34;;;;;;;5.15;4.20;;;20.10;65.50;;;;;;4992185;28;20205;-67
2023/05/27 09:40:15;;;;;;;5.22;3.95;;;20.10;65.50;;;;;;4992968;28;20223;-65
2023/05/27 09:42:48;;;;;;;5.68;4.10;;;20.10;65.50;;;;;;5022499;28;20181;-68
2023/05/27 09:45:20;;;;;;;6.10;4.15;;;20.10;65.60;;;;;;5002993;28;20200;-67
2023/05/27 09:47:52;;;;;;;5.20;4.10;;;20.10;65.50;;;;;;4992246;28;20300;-67
2023/05/27 09:50:20;;;;;;;5.78;4.28;;;20.10;66.00;;;;;;5027575;28;20188;-67
2023/05/27 09:52:48;;;;;;;6.65;4.13;;;20.10;65.80;;;;;;4995380;28;20607;-68
2023/05/27 09:55:16;;;;;;;4.93;4.00;;;20.10;65.80;;;;;;5011926;28;20272;-67
2023/05/27 09:57:43;;;;;;;4.68;3.80;;;20.10;66.20;;;;;;5000989;28;20704;-67
2023/05/27 10:00:11;;;;;;;4.90;4.38;;;20.10;65.80;;;;;;5007053;28;20192;-68
2023/05/27 10:02:48;;;;;;;4.40;3.95;;;20.10;65.90;;;;;;5017397;28;20647;-67
2023/05/27 10:05:16;;;;;;;6.43;4.47;;;20.10;65.80;;;;;;4995468;28;20219;-67
2023/05/27 10:07:45;;;;;;;6.00;3.95;;;20.20;65.90;;;;;;5010812;28;20269;-66
2023/05/27 10:10:18;;;;;;;6.07;4.72;;;20.10;65.80;;;;;;4993225;28;20193;-68
2023/05/27 10:12:46;;;;;;;6.72;4.13;;;20.20;66.00;;;;;;5011486;28;20337;-69
2023/05/27 10:15:33;;;;;;;5.03;4.20;;;20.10;65.80;;;;;;4999413;28;20227;-68
2023/05/27 10:18:09;;;;;;;6.35;4.03;;;20.20;65.90;;;;;;4991743;28;20208;-68
2023/05/27 10:20:39;;;;;;;6.80;3.95;;;20.20;66.00;;;;;;4995020;28;20183;-68
2023/05/27 10:23:28;;;;;;;4.80;4.20;;;20.10;65.60;;;;;;5011127;28;20196;-67
2023/05/27 10:26:07;;;;;;;5.00;3.92;;;20.10;65.80;;;;;;4995365;28;20192;-68
2023/05/27 10:28:41;;;;;;;5.38;4.18;;;20.20;66.10;;;;;;5011099;28;20188;-68
2023/05/27 10:31:13;;;;;;;8.38;4.70;;;20.20;66.00;;;;;;4995203;28;20195;-68
2023/05/27 10:33:52;;;;;;;12.27;4.95;;;20.20;66.30;;;;;;5011468;28;20179;-67
2023/05/27 10:36:31;;;;;;;7.15;4.40;;;20.20;66.20;;;;;;4991842;28;20220;-68
2023/05/27 10:39:15;;;;;;;8.65;4.03;;;20.20;66.30;;;;;;4991569;28;20223;-68
2023/05/27 10:41:51;;;;;;;5.35;4.30;;;20.20;66.40;;;;;;5005450;28;20184;-67
2023/05/27 10:44:41;;;;;;;9.48;4.38;;;20.20;66.20;;;;;;5002943;28;20196;-68
2023/05/27 10:47:15;;;;;;;6.88;4.35;;;20.20;66.40;;;;;;4994831;28;20236;-67
2023/05/27 10:49:47;;;;;;;5.93;4.65;;;20.20;66.30;;;;;;5011428;28;20190;-68
2023/05/27 10:52:16;;;;;;;6.93;4.18;;;20.20;66.20;;;;;;4993718;28;20197;-67
2023/05/27 10:54:47;;;;;;;4.55;4.15;;;20.20;66.10;;;;;;5011065;28;20211;-68
2023/05/27 10:57:14;;;;;;;9.10;4.07;;;20.20;66.00;;;;;;4992871;28;20208;-68
2023/05/27 10:59:49;;;;;;;8.02;3.90;;;20.20;66.20;;;;;;4995091;28;20176;-68
2023/05/27 11:02:16;;;;;;;6.50;3.78;;;20.20;66.20;;;;;;4994819;28;20231;-68
2023/05/27 11:04:42;;;;;;;6.07;4.07;;;20.20;66.20;;;;;;5005187;28;20193;-68
2023/05/27 11:07:08;;;;;;;8.70;4.53;;;20.20;66.30;;;;;;5008600;28;20220;-68
2023/05/27 11:09:52;;;;;;;6.55;4.20;;;20.20;66.10;;;;;;4994250;28;20180;-67
2023/05/27 11:12:23;;;;;;;5.00;4.50;;;20.20;66.20;;;;;;4994548;28;20660;-69
2023/05/27 11:14:51;;;;;;;6.75;4.30;;;20.20;66.20;;;;;;5010974;28;20204;-68
2023/05/27 11:17:18;;;;;;;9.50;4.72;;;20.20;66.00;;;;;;5010757;28;20205;-68
2023/05/27 11:19:45;;;;;;;6.35;4.53;;;20.20;66.40;;;;;;4994811;28;20184;-69
2023/05/27 11:22:13;;;;;;;8.15;4.55;;;20.20;66.40;;;;;;4996542;28;20280;-69
2023/05/27 11:24:40;;;;;;;5.97;4.22;;;20.20;66.00;;;;;;5014501;28;20207;-68
2023/05/27 11:27:12;;;;;;;5.25;4.07;;;20.20;66.10;;;;;;5006682;28;20239;-68
2023/05/27 11:29:38;;;;;;;6.25;4.57;;;20.20;66.00;;;;;;4998325;28;20188;-68
2023/05/27 11:32:06;;;;;;;7.22;4.07;;;20.20;66.30;;;;;;4991212;28;20554;-68
2023/05/27 11:34:35;;;;;;;4.70;3.85;;;20.20;66.00;;;;;;4994663;28;20239;-68
2023/05/27 11:37:06;;;;;;;5.82;4.05;;;20.20;66.30;;;;;;4994551;28;20200;-67
2023/05/27 11:39:32;;;;;;;5.63;4.20;;;20.20;66.20;;;;;;5014320;28;20348;-66
2023/05/27 11:41:58;;;;;;;7.28;4.30;;;20.20;66.00;;;;;;4994793;28;20184;-68
2023/05/27 11:44:25;;;;;;;5.15;4.53;;;20.20;66.20;;;;;;5013753;28;20188;-68
2023/05/27 11:46:59;;;;;;;6.90;4.60;;;20.20;66.00;;;;;;4998016;28;20215;-67
2023/05/27 11:49:25;;;;;;;6.10;4.00;;;20.20;65.90;;;;;;4997201;28;20194;-68
2023/05/27 11:51:50;;;;;;;5.57;4.10;;;20.20;65.90;;;;;;5014325;28;20286;-67
2023/05/27 11:54:22;;;;;;;6.55;4.50;;;20.20;66.00;;;;;;5013840;28;20224;-67
2023/05/27 11:56:49;;;;;;;6.28;4.43;;;20.20;66.00;;;;;;4997700;28;20212;-67
2023/05/27 11:59:16;;;;;;;6.18;4.53;;;20.20;66.00;;;;;;4995698;28;20189;-68
2023/05/27 12:01:43;;;;;;;5.22;4.00;;;20.20;65.80;;;;;;5030317;28;20204;-68
2023/05/27 12:04:09;;;;;;;7.07;4.35;;;20.20;66.10;;;;;;5013485;28;20257;-67
2023/05/27 12:06:37;;;;;;;5.82;4.80;;;20.20;66.10;;;;;;4997256;28;20679;-68
2023/05/27 12:09:05;;;;;;;5.18;4.38;;;20.20;66.10;;;;;;5013184;28;20214;-67
2023/05/27 12:11:31;;;;;;;6.25;4.22;;;20.20;66.00;;;;;;5013754;28;20192;-68
2023/05/27 12:13:58;;;;;;;5.07;4.20;;;20.20;66.10;;;;;;5026042;28;20240;-69
2023/05/27 12:16:24;;;;;;;6.35;4.28;;;20.20;66.00;;;;;;4996323;28;20262;-66
2023/05/27 12:18:50;;;;;;;5.10;4.43;;;20.30;66.00;;;;;;4990774;28;20184;-68
2023/05/27 12:21:17;;;;;;;6.20;4.28;;;20.20;66.00;;;;;;5011509;28;20180;-68
2023/05/27 12:23:43;;;;;;;5.53;4.53;;;20.20;66.00;;;;;;5013237;28;20568;-67
2023/05/27 12:26:12;;;;;;;7.78;4.30;;;20.20;66.00;;;;;;4994183;28;20199;-67
2023/05/27 12:28:38;;;;;;;6.05;4.43;;;20.20;66.00;;;;;;5013270;28;20180;-68
2023/05/27 12:31:04;;;;;;;5.80;4.55;;;20.20;66.00;;;;;;4993655;28;20285;-68
2023/05/27 12:33:31;;;;;;;5.32;4.15;;;20.20;65.90;;;;;;5004770;28;20188;-68
2023/05/27 12:35:58;;;;;;;4.68;4.05;;;20.20;65.70;;;;;;5012887;28;20208;-68
2023/05/27 12:38:24;;;;;;;8.35;5.28;;;20.20;65.70;;;;;;5012921;28;20188;-68
2023/05/27 12:40:50;;;;;;;6.20;4.50;;;20.30;65.90;;;;;;5013240;28;20190;-67
2023/05/27 12:43:20;;;;;;;4.75;4.30;;;20.20;65.80;;;;;;5012937;28;20192;-67
2023/05/27 12:45:46;;;;;;;6.47;4.45;;;20.20;65.60;;;;;;5012652;28;20188;-68
2023/05/27 12:48:13;;;;;;;5.63;4.38;;;20.30;65.70;;;;;;4996039;28;20241;-67
2023/05/27 12:50:39;;;;;;;5.57;4.60;;;20.30;65.50;;;;;;4996444;28;20254;-66
2023/05/27 12:53:05;;;;;;;4.95;4.10;;;20.20;65.40;;;;;;4996614;28;20196;-68
2023/05/27 12:55:30;;;;;;;5.13;4.57;;;20.30;65.90;;;;;;5012554;28;20267;-69
2023/05/27 12:57:57;;;;;;;6.07;4.80;;;20.30;65.80;;;;;;4996053;28;20243;-69